sensor_id;sensor_type;location;lat;lon;timestamp;P1;durP1;ratioP1;P2;durP2;ratioP2
10446;SDS011;5271;44.422;26.092;2023-05-31T00:00:51;0.20;;;0.20;;
10446;SDS011;5271;44.422;26.092;2023-05-31T00:03:18;0.10;;;0.10;;
10446;SDS011;5271;44.422;26.092;2023-05-31T00:05:47;0.20;;;0.20;;
10446;SDS011;5271;44.422;26.092;2023-05-31T00:08:13;0.20;;;0.20;;
10446;SDS011;5271;44.422;26.092;2023-05-31T00:10:40;0.20;;;0.20;;
10446;SDS011;5271;44.422;26.092;2023-05-31T00:13:07;0.20;;;0.20;;
10446;SDS011;5271;44.422;26.092;2023-05-31T00:15:34;0.10;;;0.10;;
10446;SDS011;5271;44.422;26.092;2023-05-31T00:18:01;0.20;;;0.20;;
10446;SDS011;5271;44.422;26.092;2023-05-31T00:20:28;0.20;;;0.20;;
10446;SDS011;5271;44.422;26.092;2023-05-31T00:22:56;0.10;;;0.10;;
10446;SDS011;5271;44.422;26.092;2023-05-31T00:25:23;0.20;;;0.20;;
10446;SDS011;5271;44.422;26.092;2023-05-31T00:27:50;0.13;;;0.13;;
10446;SDS011;5271;44.422;26.092;2023-05-31T00:30:17;0.10;;;0.10;;
10446;SDS011;5271;44.422;26.092;2023-05-31T00:32:44;0.20;;;0.20;;
10446;SDS011;5271;44.422;26.092;2023-05-31T00:35:10;0.13;;;0.13;;
10446;SDS011;5271;44.422;26.092;2023-05-31T00:37:37;0.20;;;0.20;;
10446;SDS011;5271;44.422;26.092;2023-05-31T00:40:06;0.10;;;0.10;;
10446;SDS011;5271;44.422;26.092;2023-05-31T00:42:33;0.20;;;0.20;;
10446;SDS011;5271;44.422;26.092;2023-05-31T00:45:00;0.20;;;0.20;;
10446;SDS011;5271;44.422;26.092;2023-05-31T00:47:27;0.20;;;0.20;;
10446;SDS011;5271;44.422;26.092;2023-05-31T00:49:55;0.20;;;0.20;;
10446;SDS011;5271;44.422;26.092;2023-05-31T00:52:22;0.20;;;0.20;;
10446;SDS011;5271;44.422;26.092;2023-05-31T00:58:25;0.20;;;0.20;;
10446;SDS011;5271;44.422;26.092;2023-05-31T01:00:53;0.20;;;0.20;;
10446;SDS011;5271;44.422;26.092;2023-05-31T01:03:21;0.20;;;0.20;;
10446;SDS011;5271;44.422;26.092;2023-05-31T01:05:48;0.20;;;0.20;;
10446;SDS011;5271;44.422;26.092;2023-05-31T01:08:15;0.20;;;0.20;;
10446;SDS011;5271;44.422;26.092;2023-05-31T01:10:42;0.20;;;0.20;;
10446;SDS011;5271;44.422;26.092;2023-05-31T01:13:11;0.20;;;0.20;;
10446;SDS011;5271;44.422;26.092;2023-05-31T01:15:45;0.20;;;0.20;;
10446;SDS011;5271;44.422;26.092;2023-05-31T01:18:20;0.20;;;0.20;;
10446;SDS011;5271;44.422;26.092;2023-05-31T01:20:56;0.20;;;0.20;;
10446;SDS011;5271;44.422;26.092;2023-05-31T01:23:31;0.20;;;0.20;;
10446;SDS011;5271;44.422;26.092;2023-05-31T01:26:05;0.20;;;0.20;;
10446;SDS011;5271;44.422;26.092;2023-05-31T01:29:05;0.20;;;0.20;;
10446;SDS011;5271;44.422;26.092;2023-05-31T01:31:35;0.20;;;0.20;;
10446;SDS011;5271;44.422;26.092;2023-05-31T01:34:03;0.30;;;0.30;;
10446;SDS011;5271;44.422;26.092;2023-05-31T01:36:31;0.20;;;0.20;;
10446;SDS011;5271;44.422;26.092;2023-05-31T01:38:58;0.20;;;0.20;;
10446;SDS011;5271;44.422;26.092;2023-05-31T01:41:27;0.20;;;0.20;;
10446;SDS011;5271;44.422;26.092;2023-05-31T01:43:56;0.20;;;0.20;;
10446;SDS011;5271;44.422;26.092;2023-05-31T01:46:25;0.20;;;0.20;;
10446;SDS011;5271;44.422;26.092;2023-05-31T01:48:53;0.20;;;0.20;;
10446;SDS011;5271;44.422;26.092;2023-05-31T01:51:20;0.20;;;0.20;;
10446;SDS011;5271;44.422;26.092;2023-05-31T01:53:48;0.20;;;0.20;;
10446;SDS011;5271;44.422;26.092;2023-05-31T01:56:15;0.20;;;0.20;;
10446;SDS011;5271;44.422;26.092;2023-05-31T01:58:43;0.13;;;0.13;;
10446;SDS011;5271;44.422;26.092;2023-05-31T02:01:14;0.20;;;0.20;;
10446;SDS011;5271;44.422;26.092;2023-05-31T02:03:43;0.20;;;0.20;;
10446;SDS011;5271;44.422;26.092;2023-05-31T02:06:10;0.20;;;0.20;;
10446;SDS011;5271;44.422;26.092;2023-05-31T02:08:39;0.10;;;0.10;;
10446;SDS011;5271;44.422;26.092;2023-05-31T02:11:06;0.20;;;0.20;;
10446;SDS011;5271;44.422;26.092;2023-05-31T02:13:33;0.20;;;0.20;;
10446;SDS011;5271;44.422;26.092;2023-05-31T02:16:00;0.20;;;0.20;;
10446;SDS011;5271;44.422;26.092;2023-05-31T02:18:28;0.20;;;0.20;;
10446;SDS011;5271;44.422;26.092;2023-05-31T02:20:57;0.20;;;0.20;;
10446;SDS011;5271;44.422;26.092;2023-05-31T02:23:24;0.20;;;0.20;;
10446;SDS011;5271;44.422;26.092;2023-05-31T02:25:50;0.20;;;0.20;;
10446;SDS011;5271;44.422;26.092;2023-05-31T02:28:18;0.20;;;0.20;;
10446;SDS011;5271;44.422;26.092;2023-05-31T02:30:52;0.20;;;0.20;;
10446;SDS011;5271;44.422;26.092;2023-05-31T02:33:20;0.20;;;0.20;;
10446;SDS011;5271;44.422;26.092;2023-05-31T02:35:47;0.20;;;0.20;;
10446;SDS011;5271;44.422;26.092;2023-05-31T02:38:15;0.20;;;0.20;;
10446;SDS011;5271;44.422;26.092;2023-05-31T02:40:42;0.20;;;0.20;;
10446;SDS011;5271;44.422;26.092;2023-05-31T02:43:09;0.20;;;0.20;;
10446;SDS011;5271;44.422;26.092;2023-05-31T02:45:36;0.20;;;0.20;;
10446;SDS011;5271;44.422;26.092;2023-05-31T02:48:03;0.20;;;0.20;;
10446;SDS011;5271;44.422;26.092;2023-05-31T02:50:30;0.20;;;0.20;;
10446;SDS011;5271;44.422;26.092;2023-05-31T02:52:57;0.20;;;0.20;;
10446;SDS011;5271;44.422;26.092;2023-05-31T02:55:27;0.20;;;0.20;;
10446;SDS011;5271;44.422;26.092;2023-05-31T02:57:54;0.20;;;0.20;;
10446;SDS011;5271;44.422;26.092;2023-05-31T03:00:21;0.20;;;0.20;;
10446;SDS011;5271;44.422;26.092;2023-05-31T03:02:49;0.20;;;0.20;;
10446;SDS011;5271;44.422;26.092;2023-05-31T03:05:16;0.20;;;0.20;;
10446;SDS011;5271;44.422;26.092;2023-05-31T03:07:43;0.20;;;0.20;;
10446;SDS011;5271;44.422;26.092;2023-05-31T03:10:09;0.20;;;0.20;;
10446;SDS011;5271;44.422;26.092;2023-05-31T03:12:38;0.23;;;0.23;;
10446;SDS011;5271;44.422;26.092;2023-05-31T03:15:06;0.20;;;0.20;;
10446;SDS011;5271;44.422;26.092;2023-05-31T03:17:34;0.20;;;0.20;;
10446;SDS011;5271;44.422;26.092;2023-05-31T03:20:02;0.20;;;0.20;;
10446;SDS011;5271;44.422;26.092;2023-05-31T03:22:31;0.20;;;0.20;;
10446;SDS011;5271;44.422;26.092;2023-05-31T03:24:58;0.20;;;0.20;;
10446;SDS011;5271;44.422;26.092;2023-05-31T03:27:25;0.20;;;0.20;;
10446;SDS011;5271;44.422;26.092;2023-05-31T03:29:53;0.20;;;0.20;;
10446;SDS011;5271;44.422;26.092;2023-05-31T03:32:20;0.20;;;0.20;;
10446;SDS011;5271;44.422;26.092;2023-05-31T03:34:47;0.20;;;0.20;;
10446;SDS011;5271;44.422;26.092;2023-05-31T03:37:14;0.20;;;0.20;;
10446;SDS011;5271;44.422;26.092;2023-05-31T03:39:41;0.20;;;0.20;;
10446;SDS011;5271;44.422;26.092;2023-05-31T03:42:08;0.20;;;0.20;;
10446;SDS011;5271;44.422;26.092;2023-05-31T03:44:35;0.20;;;0.20;;
10446;SDS011;5271;44.422;26.092;2023-05-31T03:47:03;0.20;;;0.20;;
10446;SDS011;5271;44.422;26.092;2023-05-31T03:49:30;0.20;;;0.20;;
10446;SDS011;5271;44.422;26.092;2023-05-31T03:51:57;0.20;;;0.20;;
10446;SDS011;5271;44.422;26.092;2023-05-31T03:54:24;0.20;;;0.20;;
10446;SDS011;5271;44.422;26.092;2023-05-31T03:56:51;0.20;;;0.20;;
10446;SDS011;5271;44.422;26.092;2023-05-31T03:59:17;0.20;;;0.20;;
10446;SDS011;5271;44.422;26.092;2023-05-31T04:01:44;0.27;;;0.27;;
10446;SDS011;5271;44.422;26.092;2023-05-31T04:04:13;0.20;;;0.20;;
10446;SDS011;5271;44.422;26.092;2023-05-31T04:06:39;0.20;;;0.20;;
10446;SDS011;5271;44.422;26.092;2023-05-31T04:09:06;0.30;;;0.30;;
10446;SDS011;5271;44.422;26.092;2023-05-31T04:11:33;0.20;;;0.20;;
10446;SDS011;5271;44.422;26.092;2023-05-31T04:14:00;0.20;;;0.20;;
10446;SDS011;5271;44.422;26.092;2023-05-31T04:16:27;0.20;;;0.20;;
10446;SDS011;5271;44.422;26.092;2023-05-31T04:18:54;0.20;;;0.20;;
10446;SDS011;5271;44.422;26.092;2023-05-31T04:21:22;0.20;;;0.20;;
10446;SDS011;5271;44.422;26.092;2023-05-31T04:23:49;0.20;;;0.20;;
10446;SDS011;5271;44.422;26.092;2023-05-31T04:26:15;0.20;;;0.20;;
10446;SDS011;5271;44.422;26.092;2023-05-31T04:28:42;0.20;;;0.20;;
10446;SDS011;5271;44.422;26.092;2023-05-31T04:31:09;0.30;;;0.30;;
10446;SDS011;5271;44.422;26.092;2023-05-31T04:33:36;0.30;;;0.30;;
10446;SDS011;5271;44.422;26.092;2023-05-31T04:36:06;0.30;;;0.30;;
10446;SDS011;5271;44.422;26.092;2023-05-31T04:38:34;0.20;;;0.20;;
10446;SDS011;5271;44.422;26.092;2023-05-31T04:41:02;0.20;;;0.20;;
10446;SDS011;5271;44.422;26.092;2023-05-31T04:43:29;0.27;;;0.27;;
10446;SDS011;5271;44.422;26.092;2023-05-31T04:45:56;0.30;;;0.30;;
10446;SDS011;5271;44.422;26.092;2023-05-31T04:48:25;0.20;;;0.20;;
10446;SDS011;5271;44.422;26.092;2023-05-31T04:50:52;0.20;;;0.20;;
10446;SDS011;5271;44.422;26.092;2023-05-31T04:53:21;0.20;;;0.20;;
10446;SDS011;5271;44.422;26.092;2023-05-31T04:55:50;0.30;;;0.30;;
10446;SDS011;5271;44.422;26.092;2023-05-31T04:58:17;0.20;;;0.20;;
10446;SDS011;5271;44.422;26.092;2023-05-31T05:00:44;0.20;;;0.20;;
10446;SDS011;5271;44.422;26.092;2023-05-31T05:03:11;0.20;;;0.20;;
10446;SDS011;5271;44.422;26.092;2023-05-31T05:05:39;0.20;;;0.20;;
10446;SDS011;5271;44.422;26.092;2023-05-31T05:08:06;0.20;;;0.20;;
10446;SDS011;5271;44.422;26.092;2023-05-31T05:10:34;0.20;;;0.20;;
10446;SDS011;5271;44.422;26.092;2023-05-31T05:13:02;0.30;;;0.30;;
10446;SDS011;5271;44.422;26.092;2023-05-31T05:15:29;0.20;;;0.20;;
10446;SDS011;5271;44.422;26.092;2023-05-31T05:17:56;0.20;;;0.20;;
10446;SDS011;5271;44.422;26.092;2023-05-31T05:20:22;0.20;;;0.20;;
10446;SDS011;5271;44.422;26.092;2023-05-31T05:22:50;0.20;;;0.20;;
10446;SDS011;5271;44.422;26.092;2023-05-31T05:25:18;0.30;;;0.30;;
10446;SDS011;5271;44.422;26.092;2023-05-31T05:27:46;0.30;;;0.30;;
10446;SDS011;5271;44.422;26.092;2023-05-31T05:30:14;0.20;;;0.20;;
10446;SDS011;5271;44.422;26.092;2023-05-31T05:32:42;0.20;;;0.20;;
10446;SDS011;5271;44.422;26.092;2023-05-31T05:35:09;0.30;;;0.30;;
10446;SDS011;5271;44.422;26.092;2023-05-31T05:37:36;0.30;;;0.30;;
10446;SDS011;5271;44.422;26.092;2023-05-31T05:40:03;0.20;;;0.20;;
10446;SDS011;5271;44.422;26.092;2023-05-31T05:42:32;0.20;;;0.20;;
10446;SDS011;5271;44.422;26.092;2023-05-31T05:45:02;0.20;;;0.20;;
10446;SDS011;5271;44.422;26.092;2023-05-31T05:47:31;0.30;;;0.30;;
10446;SDS011;5271;44.422;26.092;2023-05-31T05:49:58;0.20;;;0.20;;
10446;SDS011;5271;44.422;26.092;2023-05-31T05:52:25;0.20;;;0.20;;
10446;SDS011;5271;44.422;26.092;2023-05-31T05:54:52;0.30;;;0.30;;
10446;SDS011;5271;44.422;26.092;2023-05-31T05:57:18;0.20;;;0.20;;
10446;SDS011;5271;44.422;26.092;2023-05-31T05:59:46;0.30;;;0.30;;
10446;SDS011;5271;44.422;26.092;2023-05-31T06:02:13;0.30;;;0.30;;
10446;SDS011;5271;44.422;26.092;2023-05-31T06:04:41;0.30;;;0.30;;
10446;SDS011;5271;44.422;26.092;2023-05-31T06:07:08;0.30;;;0.30;;
10446;SDS011;5271;44.422;26.092;2023-05-31T06:09:35;0.30;;;0.30;;
10446;SDS011;5271;44.422;26.092;2023-05-31T06:12:02;0.30;;;0.30;;
10446;SDS011;5271;44.422;26.092;2023-05-31T06:14:29;0.30;;;0.30;;
10446;SDS011;5271;44.422;26.092;2023-05-31T06:16:56;0.30;;;0.30;;
10446;SDS011;5271;44.422;26.092;2023-05-31T06:19:23;0.30;;;0.30;;
10446;SDS011;5271;44.422;26.092;2023-05-31T06:21:51;0.30;;;0.30;;
10446;SDS011;5271;44.422;26.092;2023-05-31T06:24:22;0.20;;;0.20;;
10446;SDS011;5271;44.422;26.092;2023-05-31T06:26:49;0.30;;;0.30;;
10446;SDS011;5271;44.422;26.092;2023-05-31T06:29:16;0.30;;;0.30;;
10446;SDS011;5271;44.422;26.092;2023-05-31T06:31:43;0.30;;;0.30;;
10446;SDS011;5271;44.422;26.092;2023-05-31T06:34:10;0.30;;;0.30;;
10446;SDS011;5271;44.422;26.092;2023-05-31T06:36:36;0.33;;;0.33;;
10446;SDS011;5271;44.422;26.092;2023-05-31T06:39:05;0.30;;;0.30;;
10446;SDS011;5271;44.422;26.092;2023-05-31T06:41:31;0.30;;;0.30;;
10446;SDS011;5271;44.422;26.092;2023-05-31T06:44:00;0.30;;;0.30;;
10446;SDS011;5271;44.422;26.092;2023-05-31T06:46:27;0.30;;;0.30;;
10446;SDS011;5271;44.422;26.092;2023-05-31T06:48:54;0.30;;;0.30;;
10446;SDS011;5271;44.422;26.092;2023-05-31T06:51:21;0.30;;;0.30;;
10446;SDS011;5271;44.422;26.092;2023-05-31T06:53:48;0.30;;;0.30;;
10446;SDS011;5271;44.422;26.092;2023-05-31T06:56:17;0.30;;;0.30;;
10446;SDS011;5271;44.422;26.092;2023-05-31T06:58:43;0.30;;;0.30;;
10446;SDS011;5271;44.422;26.092;2023-05-31T07:01:11;0.30;;;0.30;;
10446;SDS011;5271;44.422;26.092;2023-05-31T07:03:38;0.20;;;0.20;;
10446;SDS011;5271;44.422;26.092;2023-05-31T07:06:05;0.20;;;0.20;;
10446;SDS011;5271;44.422;26.092;2023-05-31T07:08:32;0.20;;;0.20;;
10446;SDS011;5271;44.422;26.092;2023-05-31T07:10:58;0.10;;;0.10;;
10446;SDS011;5271;44.422;26.092;2023-05-31T07:13:27;0.20;;;0.20;;
10446;SDS011;5271;44.422;26.092;2023-05-31T07:15:54;0.10;;;0.10;;
10446;SDS011;5271;44.422;26.092;2023-05-31T07:18:21;0.10;;;0.10;;
10446;SDS011;5271;44.422;26.092;2023-05-31T07:24:10;0.00;;;0.00;;
10446;SDS011;5271;44.422;26.092;2023-05-31T07:26:37;0.10;;;0.10;;
10446;SDS011;5271;44.422;26.092;2023-05-31T07:29:05;0.10;;;0.10;;
10446;SDS011;5271;44.422;26.092;2023-05-31T07:31:32;0.10;;;0.10;;
10446;SDS011;5271;44.422;26.092;2023-05-31T07:33:59;0.10;;;0.10;;
10446;SDS011;5271;44.422;26.092;2023-05-31T07:36:25;0.10;;;0.10;;
10446;SDS011;5271;44.422;26.092;2023-05-31T07:38:52;0.10;;;0.10;;
10446;SDS011;5271;44.422;26.092;2023-05-31T07:41:19;0.10;;;0.10;;
10446;SDS011;5271;44.422;26.092;2023-05-31T07:43:46;0.10;;;0.10;;
10446;SDS011;5271;44.422;26.092;2023-05-31T07:46:14;0.10;;;0.10;;
10446;SDS011;5271;44.422;26.092;2023-05-31T07:48:41;0.10;;;0.10;;
10446;SDS011;5271;44.422;26.092;2023-05-31T07:51:08;0.10;;;0.10;;
10446;SDS011;5271;44.422;26.092;2023-05-31T07:53:35;0.10;;;0.10;;
10446;SDS011;5271;44.422;26.092;2023-05-31T07:56:03;0.10;;;0.10;;
10446;SDS011;5271;44.422;26.092;2023-05-31T07:58:30;0.10;;;0.10;;
10446;SDS011;5271;44.422;26.092;2023-05-31T08:00:56;0.10;;;0.10;;
10446;SDS011;5271;44.422;26.092;2023-05-31T08:03:25;0.10;;;0.10;;
10446;SDS011;5271;44.422;26.092;2023-05-31T08:05:52;0.10;;;0.10;;
10446;SDS011;5271;44.422;26.092;2023-05-31T08:08:19;0.10;;;0.10;;
10446;SDS011;5271;44.422;26.092;2023-05-31T08:10:46;0.10;;;0.10;;
10446;SDS011;5271;44.422;26.092;2023-05-31T08:13:13;0.10;;;0.10;;
10446;SDS011;5271;44.422;26.092;2023-05-31T08:15:40;0.10;;;0.10;;
10446;SDS011;5271;44.422;26.092;2023-05-31T08:18:07;0.10;;;0.10;;
10446;SDS011;5271;44.422;26.092;2023-05-31T08:20:35;0.10;;;0.10;;
10446;SDS011;5271;44.422;26.092;2023-05-31T08:23:02;0.10;;;0.10;;
10446;SDS011;5271;44.422;26.092;2023-05-31T08:25:28;0.10;;;0.10;;
10446;SDS011;5271;44.422;26.092;2023-05-31T08:27:55;0.10;;;0.10;;
10446;SDS011;5271;44.422;26.092;2023-05-31T08:30:22;0.10;;;0.10;;
10446;SDS011;5271;44.422;26.092;2023-05-31T08:32:49;0.03;;;0.03;;
10446;SDS011;5271;44.422;26.092;2023-05-31T08:35:16;0.07;;;0.07;;
10446;SDS011;5271;44.422;26.092;2023-05-31T08:37:44;0.10;;;0.10;;
10446;SDS011;5271;44.422;26.092;2023-05-31T08:40:11;0.10;;;0.10;;
10446;SDS011;5271;44.422;26.092;2023-05-31T08:42:39;0.10;;;0.10;;
10446;SDS011;5271;44.422;26.092;2023-05-31T08:45:09;0.10;;;0.10;;
10446;SDS011;5271;44.422;26.092;2023-05-31T08:47:38;0.00;;;0.00;;
10446;SDS011;5271;44.422;26.092;2023-05-31T08:50:09;0.10;;;0.10;;
10446;SDS011;5271;44.422;26.092;2023-05-31T08:52:37;0.10;;;0.10;;
10446;SDS011;5271;44.422;26.092;2023-05-31T08:55:07;0.10;;;0.10;;
10446;SDS011;5271;44.422;26.092;2023-05-31T08:57:34;0.00;;;0.00;;
10446;SDS011;5271;44.422;26.092;2023-05-31T09:00:03;0.00;;;0.00;;
10446;SDS011;5271;44.422;26.092;2023-05-31T09:02:36;0.00;;;0.00;;
10446;SDS011;5271;44.422;26.092;2023-05-31T09:05:03;0.10;;;0.10;;
10446;SDS011;5271;44.422;26.092;2023-05-31T09:07:35;0.10;;;0.10;;
10446;SDS011;5271;44.422;26.092;2023-05-31T09:10:02;0.10;;;0.10;;
10446;SDS011;5271;44.422;26.092;2023-05-31T09:12:32;0.10;;;0.10;;
10446;SDS011;5271;44.422;26.092;2023-05-31T09:14:59;0.10;;;0.10;;
10446;SDS011;5271;44.422;26.092;2023-05-31T09:17:27;0.10;;;0.10;;
10446;SDS011;5271;44.422;26.092;2023-05-31T09:19:54;0.10;;;0.10;;
10446;SDS011;5271;44.422;26.092;2023-05-31T09:22:21;0.10;;;0.10;;
10446;SDS011;5271;44.422;26.092;2023-05-31T09:24:49;0.10;;;0.10;;
10446;SDS011;5271;44.422;26.092;2023-05-31T09:27:17;0.10;;;0.10;;
10446;SDS011;5271;44.422;26.092;2023-05-31T09:29:45;0.10;;;0.10;;
10446;SDS011;5271;44.422;26.092;2023-05-31T09:32:18;0.10;;;0.10;;
10446;SDS011;5271;44.422;26.092;2023-05-31T09:34:46;0.10;;;0.10;;
10446;SDS011;5271;44.422;26.092;2023-05-31T09:37:22;0.10;;;0.10;;
10446;SDS011;5271;44.422;26.092;2023-05-31T09:39:53;0.10;;;0.10;;
10446;SDS011;5271;44.422;26.092;2023-05-31T09:42:21;0.10;;;0.10;;
10446;SDS011;5271;44.422;26.092;2023-05-31T09:44:51;0.10;;;0.10;;
10446;SDS011;5271;44.422;26.092;2023-05-31T09:47:22;0.08;;;0.08;;
10446;SDS011;5271;44.422;26.092;2023-05-31T09:49:52;0.10;;;0.10;;
10446;SDS011;5271;44.422;26.092;2023-05-31T09:52:19;0.00;;;0.00;;
10446;SDS011;5271;44.422;26.092;2023-05-31T09:54:52;0.00;;;0.00;;
10446;SDS011;5271;44.422;26.092;2023-05-31T09:57:30;0.10;;;0.10;;
10446;SDS011;5271;44.422;26.092;2023-05-31T09:59:59;0.00;;;0.00;;
10446;SDS011;5271;44.422;26.092;2023-05-31T10:02:30;0.00;;;0.00;;
10446;SDS011;5271;44.422;26.092;2023-05-31T10:04:58;0.10;;;0.10;;
10446;SDS011;5271;44.422;26.092;2023-05-31T10:07:25;0.00;;;0.00;;
10446;SDS011;5271;44.422;26.092;2023-05-31T10:09:53;0.10;;;0.10;;
10446;SDS011;5271;44.422;26.092;2023-05-31T10:12:20;0.03;;;0.03;;
10446;SDS011;5271;44.422;26.092;2023-05-31T10:14:53;0.10;;;0.10;;
10446;SDS011;5271;44.422;26.092;2023-05-31T10:17:28;0.00;;;0.00;;
10446;SDS011;5271;44.422;26.092;2023-05-31T10:20:00;0.00;;;0.00;;
10446;SDS011;5271;44.422;26.092;2023-05-31T10:22:31;0.10;;;0.10;;
10446;SDS011;5271;44.422;26.092;2023-05-31T10:25:03;0.00;;;0.00;;
10446;SDS011;5271;44.422;26.092;2023-05-31T10:27:36;0.00;;;0.00;;
10446;SDS011;5271;44.422;26.092;2023-05-31T10:30:04;0.00;;;0.00;;
10446;SDS011;5271;44.422;26.092;2023-05-31T10:32:36;0.00;;;0.00;;
10446;SDS011;5271;44.422;26.092;2023-05-31T10:35:09;0.00;;;0.00;;
10446;SDS011;5271;44.422;26.092;2023-05-31T10:37:37;0.03;;;0.03;;
10446;SDS011;5271;44.422;26.092;2023-05-31T10:40:06;0.00;;;0.00;;
10446;SDS011;5271;44.422;26.092;2023-05-31T10:42:40;0.00;;;0.00;;
10446;SDS011;5271;44.422;26.092;2023-05-31T10:45:15;0.00;;;0.00;;
10446;SDS011;5271;44.422;26.092;2023-05-31T10:47:51;0.00;;;0.00;;
10446;SDS011;5271;44.422;26.092;2023-05-31T10:50:22;0.00;;;0.00;;
10446;SDS011;5271;44.422;26.092;2023-05-31T10:52:50;0.00;;;0.00;;
10446;SDS011;5271;44.422;26.092;2023-05-31T10:55:18;0.00;;;0.00;;
10446;SDS011;5271;44.422;26.092;2023-05-31T10:57:49;0.10;;;0.10;;
10446;SDS011;5271;44.422;26.092;2023-05-31T11:00:18;0.10;;;0.10;;
10446;SDS011;5271;44.422;26.092;2023-05-31T11:02:46;0.00;;;0.00;;
10446;SDS011;5271;44.422;26.092;2023-05-31T11:05:19;0.00;;;0.00;;
10446;SDS011;5271;44.422;26.092;2023-05-31T11:07:47;0.00;;;0.00;;
10446;SDS011;5271;44.422;26.092;2023-05-31T11:10:25;0.00;;;0.00;;
10446;SDS011;5271;44.422;26.092;2023-05-31T11:12:55;0.00;;;0.00;;
10446;SDS011;5271;44.422;26.092;2023-05-31T11:15:25;0.00;;;0.00;;
10446;SDS011;5271;44.422;26.092;2023-05-31T11:18:06;0.08;;;0.08;;
10446;SDS011;5271;44.422;26.092;2023-05-31T11:20:35;0.10;;;0.10;;
10446;SDS011;5271;44.422;26.092;2023-05-31T11:26:14;0.00;;;0.00;;
10446;SDS011;5271;44.422;26.092;2023-05-31T11:28:55;0.10;;;0.10;;
10446;SDS011;5271;44.422;26.092;2023-05-31T11:34:24;0.00;;;0.00;;
10446;SDS011;5271;44.422;26.092;2023-05-31T11:36:56;0.00;;;0.00;;
10446;SDS011;5271;44.422;26.092;2023-05-31T11:39:24;0.00;;;0.00;;
10446;SDS011;5271;44.422;26.092;2023-05-31T11:41:51;0.00;;;0.00;;
10446;SDS011;5271;44.422;26.092;2023-05-31T11:44:20;0.10;;;0.10;;
10446;SDS011;5271;44.422;26.092;2023-05-31T11:46:55;0.00;;;0.00;;
10446;SDS011;5271;44.422;26.092;2023-05-31T11:49:26;0.10;;;0.10;;
10446;SDS011;5271;44.422;26.092;2023-05-31T11:51:55;0.08;;;0.08;;
10446;SDS011;5271;44.422;26.092;2023-05-31T11:54:25;0.10;;;0.10;;
10446;SDS011;5271;44.422;26.092;2023-05-31T11:56:58;0.10;;;0.10;;
10446;SDS011;5271;44.422;26.092;2023-05-31T11:59:26;0.00;;;0.00;;
10446;SDS011;5271;44.422;26.092;2023-05-31T12:01:56;0.00;;;0.00;;
10446;SDS011;5271;44.422;26.092;2023-05-31T12:04:28;0.00;;;0.00;;
10446;SDS011;5271;44.422;26.092;2023-05-31T12:06:58;0.00;;;0.00;;
10446;SDS011;5271;44.422;26.092;2023-05-31T12:09:25;0.00;;;0.00;;
10446;SDS011;5271;44.422;26.092;2023-05-31T12:11:52;0.00;;;0.00;;
10446;SDS011;5271;44.422;26.092;2023-05-31T12:14:20;0.00;;;0.00;;
10446;SDS011;5271;44.422;26.092;2023-05-31T12:16:48;0.00;;;0.00;;
10446;SDS011;5271;44.422;26.092;2023-05-31T12:19:15;0.00;;;0.00;;
10446;SDS011;5271;44.422;26.092;2023-05-31T12:21:43;0.00;;;0.00;;
10446;SDS011;5271;44.422;26.092;2023-05-31T12:24:12;0.00;;;0.00;;
10446;SDS011;5271;44.422;26.092;2023-05-31T12:26:39;0.00;;;0.00;;
10446;SDS011;5271;44.422;26.092;2023-05-31T12:29:09;0.00;;;0.00;;
10446;SDS011;5271;44.422;26.092;2023-05-31T12:31:36;0.00;;;0.00;;
10446;SDS011;5271;44.422;26.092;2023-05-31T12:34:07;0.00;;;0.00;;
10446;SDS011;5271;44.422;26.092;2023-05-31T12:36:41;0.00;;;0.00;;
10446;SDS011;5271;44.422;26.092;2023-05-31T12:39:10;0.00;;;0.00;;
10446;SDS011;5271;44.422;26.092;2023-05-31T12:41:42;0.00;;;0.00;;
10446;SDS011;5271;44.422;26.092;2023-05-31T12:44:11;0.00;;;0.00;;
10446;SDS011;5271;44.422;26.092;2023-05-31T12:46:41;0.00;;;0.00;;
10446;SDS011;5271;44.422;26.092;2023-05-31T12:49:18;0.00;;;0.00;;
10446;SDS011;5271;44.422;26.092;2023-05-31T12:51:46;0.10;;;0.10;;
10446;SDS011;5271;44.422;26.092;2023-05-31T12:54:16;0.00;;;0.00;;
10446;SDS011;5271;44.422;26.092;2023-05-31T12:56:44;0.00;;;0.00;;
10446;SDS011;5271;44.422;26.092;2023-05-31T12:59:11;0.00;;;0.00;;
10446;SDS011;5271;44.422;26.092;2023-05-31T13:01:39;0.00;;;0.00;;
10446;SDS011;5271;44.422;26.092;2023-05-31T13:04:08;0.00;;;0.00;;
10446;SDS011;5271;44.422;26.092;2023-05-31T13:06:37;0.00;;;0.00;;
10446;SDS011;5271;44.422;26.092;2023-05-31T13:09:04;0.00;;;0.00;;
10446;SDS011;5271;44.422;26.092;2023-05-31T13:11:34;0.00;;;0.00;;
10446;SDS011;5271;44.422;26.092;2023-05-31T13:14:01;0.00;;;0.00;;
10446;SDS011;5271;44.422;26.092;2023-05-31T13:16:30;0.05;;;0.05;;
10446;SDS011;5271;44.422;26.092;2023-05-31T13:18:57;0.00;;;0.00;;
10446;SDS011;5271;44.422;26.092;2023-05-31T13:21:24;0.00;;;0.00;;
10446;SDS011;5271;44.422;26.092;2023-05-31T13:23:51;0.00;;;0.00;;
10446;SDS011;5271;44.422;26.092;2023-05-31T13:26:19;0.00;;;0.00;;
10446;SDS011;5271;44.422;26.092;2023-05-31T13:28:48;0.00;;;0.00;;
10446;SDS011;5271;44.422;26.092;2023-05-31T13:31:15;0.00;;;0.00;;
10446;SDS011;5271;44.422;26.092;2023-05-31T13:33:42;0.10;;;0.10;;
10446;SDS011;5271;44.422;26.092;2023-05-31T13:36:09;0.00;;;0.00;;
10446;SDS011;5271;44.422;26.092;2023-05-31T13:38:36;0.00;;;0.00;;
10446;SDS011;5271;44.422;26.092;2023-05-31T13:41:03;0.00;;;0.00;;
10446;SDS011;5271;44.422;26.092;2023-05-31T13:43:31;0.00;;;0.00;;
10446;SDS011;5271;44.422;26.092;2023-05-31T13:46:00;0.00;;;0.00;;
10446;SDS011;5271;44.422;26.092;2023-05-31T13:48:27;0.00;;;0.00;;
10446;SDS011;5271;44.422;26.092;2023-05-31T13:50:53;0.00;;;0.00;;
10446;SDS011;5271;44.422;26.092;2023-05-31T13:53:20;0.00;;;0.00;;
10446;SDS011;5271;44.422;26.092;2023-05-31T13:55:47;0.00;;;0.00;;
10446;SDS011;5271;44.422;26.092;2023-05-31T13:58:15;0.00;;;0.00;;
10446;SDS011;5271;44.422;26.092;2023-05-31T14:00:42;0.00;;;0.00;;
10446;SDS011;5271;44.422;26.092;2023-05-31T14:03:10;0.00;;;0.00;;
10446;SDS011;5271;44.422;26.092;2023-05-31T14:05:37;0.00;;;0.00;;
10446;SDS011;5271;44.422;26.092;2023-05-31T14:08:04;0.00;;;0.00;;
10446;SDS011;5271;44.422;26.092;2023-05-31T14:10:32;0.00;;;0.00;;
10446;SDS011;5271;44.422;26.092;2023-05-31T14:12:59;0.00;;;0.00;;
10446;SDS011;5271;44.422;26.092;2023-05-31T14:15:26;0.00;;;0.00;;
10446;SDS011;5271;44.422;26.092;2023-05-31T14:17:53;0.00;;;0.00;;
10446;SDS011;5271;44.422;26.092;2023-05-31T14:20:21;0.00;;;0.00;;
10446;SDS011;5271;44.422;26.092;2023-05-31T14:22:48;0.00;;;0.00;;
10446;SDS011;5271;44.422;26.092;2023-05-31T14:25:15;0.00;;;0.00;;
10446;SDS011;5271;44.422;26.092;2023-05-31T14:27:42;0.00;;;0.00;;
10446;SDS011;5271;44.422;26.092;2023-05-31T14:30:09;0.00;;;0.00;;
10446;SDS011;5271;44.422;26.092;2023-05-31T14:32:36;0.00;;;0.00;;
10446;SDS011;5271;44.422;26.092;2023-05-31T14:35:04;0.00;;;0.00;;
10446;SDS011;5271;44.422;26.092;2023-05-31T14:37:32;0.00;;;0.00;;
10446;SDS011;5271;44.422;26.092;2023-05-31T14:39:59;0.00;;;0.00;;
10446;SDS011;5271;44.422;26.092;2023-05-31T14:42:26;0.00;;;0.00;;
10446;SDS011;5271;44.422;26.092;2023-05-31T14:44:53;0.00;;;0.00;;
10446;SDS011;5271;44.422;26.092;2023-05-31T14:47:20;0.00;;;0.00;;
10446;SDS011;5271;44.422;26.092;2023-05-31T14:49:47;0.00;;;0.00;;
10446;SDS011;5271;44.422;26.092;2023-05-31T14:52:14;0.00;;;0.00;;
10446;SDS011;5271;44.422;26.092;2023-05-31T14:54:42;0.00;;;0.00;;
10446;SDS011;5271;44.422;26.092;2023-05-31T14:57:09;0.00;;;0.00;;
10446;SDS011;5271;44.422;26.092;2023-05-31T14:59:36;0.00;;;0.00;;
10446;SDS011;5271;44.422;26.092;2023-05-31T15:02:03;0.00;;;0.00;;
10446;SDS011;5271;44.422;26.092;2023-05-31T15:04:32;0.00;;;0.00;;
10446;SDS011;5271;44.422;26.092;2023-05-31T15:06:59;0.00;;;0.00;;